Terminal Aerodrome Forecast
Issued by NWS

Home | Current Version | Previous Version | Text Only | Print | Product List | Glossary On
Versions: 1 2 3 4 5 6 7 8 9 10 11 12 13
000
FTUS45 KGJT 281740
TAFEGE
TAF
KEGE 281740Z 2818/2918 VRB03KT P6SM VCSH FEW100 BKN200
     FM282000 28008KT P6SM VCTS SCT100CB BKN150
     FM290000 30008KT P6SM VCTS SCT080CB BKN100
     FM290400 VRB03KT P6SM SCT080 BKN100=

USA.gov is the U.S. government's official web portal to all federal, state and local government web resources and services.